Time;durP1;ratioP1;P1;durP2;ratioP2;P2;SDS_P1;SDS_P2;PMS_P1;PMS_P2;Temp;Humidity;BMP_temperature;BMP_pressure;BME280_temperature;BME280_humidity;BME280_pressure;Samples;Min_cycle;Max_cycle;Signal;HPM_P1;HPM_P2
2022/04/20 00:00:41;;;;;;;38.00;7.32;;;;;;;;;;4937364;29;20482;-41
2022/04/20 00:03:09;;;;;;;43.15;8.43;;;;;;;;;;4937144;29;20056;-42
2022/04/20 00:05:35;;;;;;;38.63;7.82;;;;;;;;;;4937423;29;20780;-42
2022/04/20 00:08:03;;;;;;;42.03;7.72;;;;;;;;;;4936827;29;20122;-42
2022/04/20 00:10:31;;;;;;;34.20;7.25;;;;;;;;;;4927874;29;20064;-42
2022/04/20 00:12:58;;;;;;;24.83;6.70;;;;;;;;;;4936987;29;20132;-44
2022/04/20 00:15:26;;;;;;;30.63;6.57;;;;;;;;;;4937142;29;20031;-42
2022/04/20 00:17:54;;;;;;;27.23;6.50;;;;;;;;;;4937081;29;20126;-42
2022/04/20 00:20:21;;;;;;;28.23;6.90;;;;;;;;;;4935301;29;20602;-44
2022/04/20 00:22:48;;;;;;;33.72;7.18;;;;;;;;;;4931192;29;20503;-41
2022/04/20 00:25:16;;;;;;;33.75;7.00;;;;;;;;;;4917230;29;20047;-43
2022/04/20 00:27:43;;;;;;;34.60;7.25;;;;;;;;;;4917363;29;20115;-45
2022/04/20 00:30:12;;;;;;;52.97;11.25;;;;;;;;;;4916902;29;20044;-47
2022/04/20 00:32:41;;;;;;;68.35;13.93;;;;;;;;;;4917515;29;20048;-46
2022/04/20 00:35:09;;;;;;;58.38;13.20;;;;;;;;;;4917475;29;20407;-45
2022/04/20 00:37:36;;;;;;;96.90;22.25;;;;;;;;;;4917161;29;20032;-45
2022/04/20 00:40:04;;;;;;;133.52;30.20;;;;;;;;;;4917210;29;20035;-45
2022/04/20 00:42:32;;;;;;;134.85;29.30;;;;;;;;;;4917244;29;20032;-45
2022/04/20 00:44:59;;;;;;;159.05;35.67;;;;;;;;;;4916943;29;20039;-45
2022/04/20 00:47:27;;;;;;;167.32;37.35;;;;;;;;;;4917506;29;20063;-45
2022/04/20 00:49:54;;;;;;;164.00;35.95;;;;;;;;;;4921499;29;20027;-46
2022/04/20 00:52:21;;;;;;;148.25;34.50;;;;;;;;;;4935620;29;20028;-46
2022/04/20 00:54:48;;;;;;;174.68;40.15;;;;;;;;;;4935913;29;20034;-44
2022/04/20 00:57:15;;;;;;;147.85;37.25;;;;;;;;;;4932289;29;20470;-45
2022/04/20 00:59:43;;;;;;;124.85;33.17;;;;;;;;;;4931133;29;20024;-45
2022/04/20 01:02:10;;;;;;;135.15;33.05;;;;;;;;;;4929522;29;20047;-46
2022/04/20 01:04:38;;;;;;;126.78;30.80;;;;;;;;;;4935518;29;20036;-45
2022/04/20 01:07:14;;;;;;;123.65;29.90;;;;;;;;;;4935770;29;20091;-45
2022/04/20 01:09:42;;;;;;;121.43;30.40;;;;;;;;;;4935375;29;20107;-45
2022/04/20 01:12:09;;;;;;;125.47;28.73;;;;;;;;;;4935764;29;20031;-46
2022/04/20 01:14:36;;;;;;;106.07;27.75;;;;;;;;;;4935860;29;20035;-45
2022/04/20 01:17:04;;;;;;;102.63;28.35;;;;;;;;;;4932409;29;20055;-45
2022/04/20 01:19:41;;;;;;;105.15;28.10;;;;;;;;;;4935583;29;20024;-44
2022/04/20 01:22:09;;;;;;;98.30;26.98;;;;;;;;;;4927329;29;20118;-45
2022/04/20 01:24:37;;;;;;;90.03;27.27;;;;;;;;;;4924047;29;20063;-46
2022/04/20 01:27:05;;;;;;;91.70;23.52;;;;;;;;;;4934749;29;20505;-51
2022/04/20 01:29:33;;;;;;;82.60;23.27;;;;;;;;;;4935080;29;20024;-45
2022/04/20 01:32:00;;;;;;;86.00;23.92;;;;;;;;;;4935070;29;20134;-46
2022/04/20 01:34:27;;;;;;;79.38;22.75;;;;;;;;;;4935712;29;20457;-46
2022/04/20 01:36:54;;;;;;;85.15;23.10;;;;;;;;;;4930228;29;20102;-44
2022/04/20 01:39:21;;;;;;;72.55;20.13;;;;;;;;;;4931310;29;20121;-47
2022/04/20 01:41:48;;;;;;;66.93;20.92;;;;;;;;;;4915152;29;20055;-44
2022/04/20 01:44:15;;;;;;;66.95;19.42;;;;;;;;;;4923196;29;20036;-46
2022/04/20 01:46:42;;;;;;;75.18;19.50;;;;;;;;;;4929246;29;20395;-45
2022/04/20 01:49:09;;;;;;;77.60;20.38;;;;;;;;;;4927829;29;20032;-45
2022/04/20 01:51:51;;;;;;;66.00;19.77;;;;;;;;;;4928698;29;20027;-44
2022/04/20 01:54:19;;;;;;;64.32;18.48;;;;;;;;;;4928847;29;20080;-46
2022/04/20 01:56:47;;;;;;;70.95;19.10;;;;;;;;;;4927497;29;20114;-46
2022/04/20 01:59:14;;;;;;;68.78;19.70;;;;;;;;;;4914411;29;20034;-45
2022/04/20 02:04:28;;;;;;;56.60;17.00;;;;;;;;;;4934824;29;20470;-44
2022/04/20 02:06:55;;;;;;;57.75;17.67;;;;;;;;;;4929275;29;20106;-41
2022/04/20 02:09:22;;;;;;;52.05;16.20;;;;;;;;;;4915417;29;20111;-40
2022/04/20 02:11:49;;;;;;;55.60;16.40;;;;;;;;;;4916573;29;20398;-39
2022/04/20 02:14:16;;;;;;;61.15;16.05;;;;;;;;;;4916469;29;20048;-40
2022/04/20 02:16:43;;;;;;;49.05;15.93;;;;;;;;;;4916245;29;20040;-39
2022/04/20 02:19:10;;;;;;;53.90;15.90;;;;;;;;;;4924518;29;20031;-38
2022/04/20 02:21:37;;;;;;;48.70;15.77;;;;;;;;;;4916072;29;20024;-39
2022/04/20 02:24:04;;;;;;;54.85;16.67;;;;;;;;;;4916085;29;20477;-38
2022/04/20 02:26:31;;;;;;;54.85;15.07;;;;;;;;;;4916371;29;20071;-39
2022/04/20 02:28:58;;;;;;;52.75;16.20;;;;;;;;;;4916296;29;20036;-38
2022/04/20 02:31:25;;;;;;;43.95;14.93;;;;;;;;;;4915848;29;20127;-39
2022/04/20 02:33:52;;;;;;;55.60;16.75;;;;;;;;;;4916247;29;20096;-38
2022/04/20 02:36:19;;;;;;;48.33;14.82;;;;;;;;;;4916218;29;20032;-38
2022/04/20 02:38:46;;;;;;;48.38;15.07;;;;;;;;;;4916243;29;20080;-38
2022/04/20 02:41:13;;;;;;;46.60;15.52;;;;;;;;;;4916123;29;20059;-39
2022/04/20 02:43:40;;;;;;;50.00;14.10;;;;;;;;;;4915863;29;20479;-39
2022/04/20 02:46:07;;;;;;;40.35;14.98;;;;;;;;;;4916209;29;20115;-39
2022/04/20 02:48:35;;;;;;;42.70;15.15;;;;;;;;;;4916121;29;20107;-39
2022/04/20 02:51:03;;;;;;;41.53;14.30;;;;;;;;;;4916021;29;20479;-39
2022/04/20 02:53:30;;;;;;;43.90;14.52;;;;;;;;;;4916042;29;20044;-39
2022/04/20 02:55:56;;;;;;;45.05;14.52;;;;;;;;;;4915841;29;20032;-38
2022/04/20 02:58:23;;;;;;;50.40;14.88;;;;;;;;;;4916035;29;20391;-39
2022/04/20 03:00:50;;;;;;;47.67;13.75;;;;;;;;;;4915995;29;20028;-38
2022/04/20 03:03:17;;;;;;;37.08;13.23;;;;;;;;;;4915900;29;20059;-38
2022/04/20 03:05:44;;;;;;;44.08;15.05;;;;;;;;;;4916177;29;20057;-39
2022/04/20 03:08:11;;;;;;;41.60;13.27;;;;;;;;;;4916129;29;20028;-38
2022/04/20 03:10:38;;;;;;;41.58;12.90;;;;;;;;;;4915924;29;20068;-39
2022/04/20 03:13:05;;;;;;;37.58;12.82;;;;;;;;;;4916035;29;20032;-39
2022/04/20 03:15:32;;;;;;;43.38;13.40;;;;;;;;;;4919866;29;20043;-39
2022/04/20 03:17:59;;;;;;;35.78;12.23;;;;;;;;;;4919994;29;20100;-39
2022/04/20 03:20:27;;;;;;;37.55;12.90;;;;;;;;;;4919809;29;20103;-39
2022/04/20 03:22:54;;;;;;;36.88;12.68;;;;;;;;;;4919901;29;20067;-39
2022/04/20 03:25:21;;;;;;;33.45;11.48;;;;;;;;;;4919737;29;20502;-39
2022/04/20 03:27:48;;;;;;;41.05;12.57;;;;;;;;;;4919829;29;20099;-38
2022/04/20 03:30:15;;;;;;;30.23;11.15;;;;;;;;;;4919596;29;20488;-39
2022/04/20 03:32:42;;;;;;;34.80;12.38;;;;;;;;;;4919540;29;20059;-39
2022/04/20 03:35:09;;;;;;;32.40;12.13;;;;;;;;;;4919659;29;20371;-39
2022/04/20 03:37:37;;;;;;;34.80;12.07;;;;;;;;;;4919628;29;20029;-38
2022/04/20 03:40:05;;;;;;;33.67;11.82;;;;;;;;;;4919513;29;20032;-39
2022/04/20 03:42:32;;;;;;;32.22;11.52;;;;;;;;;;4919586;29;20067;-39
2022/04/20 03:44:59;;;;;;;36.53;12.00;;;;;;;;;;4919424;29;20546;-38
2022/04/20 03:47:26;;;;;;;31.88;11.82;;;;;;;;;;4919438;29;20044;-38
2022/04/20 03:49:53;;;;;;;32.72;12.25;;;;;;;;;;4919338;29;20051;-39
2022/04/20 03:52:20;;;;;;;31.02;10.38;;;;;;;;;;4919399;29;20028;-39
2022/04/20 03:54:47;;;;;;;25.67;10.25;;;;;;;;;;4919349;29;20407;-38
2022/04/20 03:57:14;;;;;;;28.52;11.15;;;;;;;;;;4919266;29;20454;-39
2022/04/20 03:59:41;;;;;;;27.40;11.00;;;;;;;;;;4919187;29;20035;-39
2022/04/20 04:02:08;;;;;;;27.75;10.75;;;;;;;;;;4919153;29;20394;-39
2022/04/20 04:04:35;;;;;;;29.33;10.98;;;;;;;;;;4919122;29;20402;-39
2022/04/20 04:07:02;;;;;;;26.50;10.05;;;;;;;;;;4919167;29;20044;-39
2022/04/20 04:09:29;;;;;;;28.10;10.90;;;;;;;;;;4919031;29;20051;-39
2022/04/20 04:11:56;;;;;;;29.08;9.32;;;;;;;;;;4919104;29;20020;-39
2022/04/20 04:14:23;;;;;;;21.63;8.73;;;;;;;;;;4918996;29;20032;-39
2022/04/20 04:16:50;;;;;;;29.27;8.85;;;;;;;;;;4918968;29;20103;-39
2022/04/20 04:19:17;;;;;;;28.88;9.30;;;;;;;;;;4918806;29;20156;-39
2022/04/20 04:21:44;;;;;;;25.15;8.60;;;;;;;;;;4918847;29;20115;-39
2022/04/20 04:24:34;;;;;;;23.08;8.85;;;;;;;;;;4918780;29;20035;-39
2022/04/20 04:26:59;;;;;;;23.80;8.57;;;;;;;;;;4912138;29;20044;-39
2022/04/20 04:29:26;;;;;;;23.40;8.80;;;;;;;;;;4918659;29;20496;-39
2022/04/20 04:31:53;;;;;;;24.00;8.50;;;;;;;;;;4918342;29;20052;-38
2022/04/20 04:34:20;;;;;;;23.05;8.90;;;;;;;;;;4901516;29;20431;-39
2022/04/20 04:36:47;;;;;;;24.65;8.70;;;;;;;;;;4918653;29;20028;-38
2022/04/20 04:39:17;;;;;;;22.08;8.93;;;;;;;;;;4918472;29;20024;-38
2022/04/20 04:41:47;;;;;;;23.15;8.40;;;;;;;;;;4911178;29;20032;-39
2022/04/20 04:44:14;;;;;;;24.92;8.63;;;;;;;;;;4918381;29;20032;-39
2022/04/20 04:49:27;;;;;;;21.65;7.85;;;;;;;;;;4918580;29;20099;-39
2022/04/20 04:51:54;;;;;;;20.38;7.57;;;;;;;;;;4918235;29;20112;-38
2022/04/20 04:54:21;;;;;;;23.98;7.93;;;;;;;;;;4918231;29;20032;-39
2022/04/20 04:56:48;;;;;;;22.25;8.02;;;;;;;;;;4918143;29;20371;-38
2022/04/20 04:59:16;;;;;;;19.77;7.82;;;;;;;;;;4918212;29;20494;-39
2022/04/20 05:01:43;;;;;;;22.08;8.25;;;;;;;;;;4918047;29;20036;-39
2022/04/20 05:04:11;;;;;;;20.85;7.93;;;;;;;;;;4918094;29;20042;-39
2022/04/20 05:06:38;;;;;;;21.65;7.55;;;;;;;;;;4917925;29;20123;-39
2022/04/20 05:09:05;;;;;;;20.58;7.78;;;;;;;;;;4917852;29;20032;-39
2022/04/20 05:11:32;;;;;;;21.58;7.70;;;;;;;;;;4918012;29;20127;-39
2022/04/20 05:13:59;;;;;;;18.80;7.43;;;;;;;;;;4917953;29;20035;-39
2022/04/20 05:16:26;;;;;;;18.35;7.43;;;;;;;;;;4917928;29;20107;-39
2022/04/20 05:18:53;;;;;;;20.17;7.93;;;;;;;;;;4917802;29;20024;-39
2022/04/20 05:21:20;;;;;;;19.67;7.20;;;;;;;;;;4917813;29;20028;-39
2022/04/20 05:23:47;;;;;;;18.17;7.20;;;;;;;;;;4917738;29;20055;-39
2022/04/20 05:26:14;;;;;;;18.48;7.15;;;;;;;;;;4917736;29;20195;-40
2022/04/20 05:28:41;;;;;;;20.95;7.20;;;;;;;;;;4917686;29;20133;-39
2022/04/20 05:31:08;;;;;;;19.83;7.22;;;;;;;;;;4917605;29;20020;-39
2022/04/20 05:33:34;;;;;;;18.05;6.72;;;;;;;;;;4917407;29;20048;-39
2022/04/20 05:36:01;;;;;;;20.75;6.97;;;;;;;;;;4917563;29;20039;-39
2022/04/20 05:44:13;;;;;;;18.13;7.07;;;;;;;;;;4874137;29;20106;-39
2022/04/20 05:46:41;;;;;;;21.55;6.60;;;;;;;;;;4900321;29;20036;-39
2022/04/20 05:49:08;;;;;;;18.80;6.43;;;;;;;;;;4917409;29;20489;-39
2022/04/20 05:51:35;;;;;;;20.02;7.25;;;;;;;;;;4917212;29;20471;-39
2022/04/20 05:54:03;;;;;;;19.95;6.50;;;;;;;;;;4917230;29;20036;-39
2022/04/20 05:56:30;;;;;;;14.00;5.53;;;;;;;;;;4900121;29;20110;-38
2022/04/20 05:58:57;;;;;;;17.05;6.93;;;;;;;;;;4917051;29;20586;-39
2022/04/20 06:01:26;;;;;;;15.52;6.32;;;;;;;;;;4917068;29;20032;-39
2022/04/20 06:03:53;;;;;;;14.80;6.03;;;;;;;;;;4916760;29;20044;-39
2022/04/20 06:06:20;;;;;;;17.63;5.88;;;;;;;;;;4916842;29;20042;-39
2022/04/20 06:08:47;;;;;;;17.40;5.80;;;;;;;;;;4899859;29;20399;-38
2022/04/20 06:11:14;;;;;;;18.38;6.43;;;;;;;;;;4916947;29;20040;-39
2022/04/20 06:13:41;;;;;;;12.88;5.93;;;;;;;;;;4909269;29;20032;-38
2022/04/20 06:16:08;;;;;;;14.25;6.03;;;;;;;;;;4916739;29;20474;-39
2022/04/20 06:18:35;;;;;;;18.88;6.00;;;;;;;;;;4916821;29;20032;-38
2022/04/20 06:21:05;;;;;;;13.35;5.85;;;;;;;;;;4916691;29;20028;-39
2022/04/20 06:23:32;;;;;;;17.42;6.03;;;;;;;;;;4916467;29;20040;-39
2022/04/20 06:25:59;;;;;;;15.68;5.93;;;;;;;;;;4916699;29;20514;-39
2022/04/20 06:28:26;;;;;;;17.92;6.57;;;;;;;;;;4916650;29;20368;-38
2022/04/20 06:33:35;;;;;;;13.70;5.68;;;;;;;;;;4946287;29;20058;-40
2022/04/20 06:36:03;;;;;;;14.75;5.57;;;;;;;;;;4954701;29;20024;-40
2022/04/20 06:38:30;;;;;;;14.10;6.05;;;;;;;;;;4954652;29;20039;-40
2022/04/20 06:40:58;;;;;;;13.32;6.05;;;;;;;;;;4954663;29;20397;-40
2022/04/20 06:43:25;;;;;;;14.48;5.90;;;;;;;;;;4954318;29;20035;-40
2022/04/20 06:45:54;;;;;;;14.73;5.95;;;;;;;;;;4954556;29;20024;-40
2022/04/20 06:48:21;;;;;;;14.82;5.43;;;;;;;;;;4953767;28;20043;-40
2022/04/20 06:50:48;;;;;;;13.80;5.80;;;;;;;;;;4954510;29;20516;-40
2022/04/20 06:58:45;;;;;;;12.18;5.72;;;;;;;;;;4954449;29;20062;-40
2022/04/20 07:01:14;;;;;;;11.82;5.45;;;;;;;;;;4937032;29;20039;-40
2022/04/20 07:03:42;;;;;;;15.13;5.57;;;;;;;;;;4954199;29;20045;-40
2022/04/20 07:06:09;;;;;;;13.90;7.10;;;;;;;;;;4954398;29;20034;-40
2022/04/20 07:08:36;;;;;;;13.02;6.47;;;;;;;;;;4954290;29;20038;-40
2022/04/20 07:11:03;;;;;;;14.07;5.70;;;;;;;;;;4954122;29;20122;-40
2022/04/20 07:13:30;;;;;;;17.38;6.80;;;;;;;;;;4954262;29;20114;-40
2022/04/20 07:15:57;;;;;;;15.88;6.50;;;;;;;;;;4954162;29;20106;-40
2022/04/20 07:18:24;;;;;;;15.18;6.60;;;;;;;;;;4954242;29;20027;-40
2022/04/20 07:20:52;;;;;;;12.93;5.68;;;;;;;;;;4954186;29;20059;-40
2022/04/20 07:23:19;;;;;;;14.30;6.82;;;;;;;;;;4954027;29;20054;-40
2022/04/20 07:25:46;;;;;;;11.80;5.90;;;;;;;;;;4936932;29;20059;-40
2022/04/20 07:28:13;;;;;;;12.98;6.63;;;;;;;;;;4954072;29;20397;-40
2022/04/20 07:30:40;;;;;;;11.35;5.53;;;;;;;;;;4954087;29;20046;-40
2022/04/20 07:33:07;;;;;;;12.27;6.28;;;;;;;;;;4953827;29;20062;-40
2022/04/20 07:35:34;;;;;;;11.40;6.20;;;;;;;;;;4954061;29;20409;-40
2022/04/20 07:38:01;;;;;;;13.77;5.88;;;;;;;;;;4954060;29;20031;-40
2022/04/20 07:40:28;;;;;;;12.77;6.13;;;;;;;;;;4954169;29;20023;-40
2022/04/20 07:42:55;;;;;;;16.35;6.57;;;;;;;;;;4953993;29;20023;-40
2022/04/20 07:45:26;;;;;;;14.65;6.07;;;;;;;;;;4953982;29;20119;-40
2022/04/20 07:47:56;;;;;;;16.00;5.80;;;;;;;;;;4954010;29;20035;-40
2022/04/20 07:50:24;;;;;;;12.60;5.78;;;;;;;;;;4954158;29;20032;-40
2022/04/20 07:52:56;;;;;;;9.32;5.95;;;;;;;;;;4953909;29;20035;-40
2022/04/20 07:55:27;;;;;;;12.75;6.25;;;;;;;;;;4953986;29;20393;-40
2022/04/20 07:57:55;;;;;;;12.38;5.40;;;;;;;;;;4954200;29;20433;-40
2022/04/20 08:00:22;;;;;;;10.90;5.50;;;;;;;;;;4955537;28;20038;-40
2022/04/20 08:02:50;;;;;;;11.45;5.60;;;;;;;;;;4957352;29;20114;-40
2022/04/20 08:05:19;;;;;;;16.77;6.30;;;;;;;;;;4957327;29;20556;-40
2022/04/20 08:07:46;;;;;;;10.50;5.32;;;;;;;;;;4957331;29;20031;-40
2022/04/20 08:10:14;;;;;;;12.48;6.03;;;;;;;;;;4957347;29;20028;-40
2022/04/20 08:12:42;;;;;;;11.32;5.28;;;;;;;;;;4949424;29;20031;-40
2022/04/20 08:15:10;;;;;;;11.05;5.75;;;;;;;;;;4957260;29;20027;-40
2022/04/20 08:17:37;;;;;;;9.73;5.22;;;;;;;;;;4957217;29;20024;-40
2022/04/20 08:20:05;;;;;;;10.85;6.05;;;;;;;;;;4957076;29;20031;-40
2022/04/20 08:22:32;;;;;;;11.48;5.65;;;;;;;;;;4939826;29;20032;-40
2022/04/20 08:25:02;;;;;;;10.18;5.18;;;;;;;;;;4939896;29;20327;-40
2022/04/20 08:27:30;;;;;;;9.75;5.60;;;;;;;;;;4957136;29;20491;-40
2022/04/20 08:29:57;;;;;;;14.93;5.35;;;;;;;;;;4956983;29;20035;-40
2022/04/20 08:32:24;;;;;;;10.40;5.10;;;;;;;;;;4956688;29;20102;-40
2022/04/20 08:34:51;;;;;;;13.70;5.95;;;;;;;;;;4956944;29;20111;-40
2022/04/20 08:37:18;;;;;;;10.98;5.70;;;;;;;;;;4956826;29;20062;-40
2022/04/20 08:39:45;;;;;;;11.65;5.63;;;;;;;;;;4956816;29;20024;-40
2022/04/20 08:42:12;;;;;;;10.00;5.00;;;;;;;;;;4956567;29;20042;-40
2022/04/20 08:44:44;;;;;;;9.15;4.55;;;;;;;;;;4956657;29;20039;-40
2022/04/20 08:47:15;;;;;;;9.30;5.20;;;;;;;;;;4956583;29;20110;-40
2022/04/20 08:49:43;;;;;;;11.07;4.93;;;;;;;;;;4956635;29;20027;-40
2022/04/20 08:54:58;;;;;;;10.23;4.80;;;;;;;;;;4956823;29;20042;-40
2022/04/20 08:57:29;;;;;;;10.32;5.28;;;;;;;;;;4956504;29;20027;-40
2022/04/20 08:59:58;;;;;;;10.43;4.50;;;;;;;;;;4956476;29;20033;-40
2022/04/20 09:02:28;;;;;;;9.52;4.28;;;;;;;;;;4956261;29;20027;-40
2022/04/20 09:04:56;;;;;;;8.60;4.45;;;;;;;;;;4956158;29;20039;-40
2022/04/20 09:07:25;;;;;;;11.50;4.85;;;;;;;;;;4956231;29;20027;-40
2022/04/20 09:09:52;;;;;;;10.30;4.88;;;;;;;;;;4956052;29;20672;-40
2022/04/20 09:12:22;;;;;;;10.27;4.63;;;;;;;;;;4955547;28;20035;-40
2022/04/20 09:14:50;;;;;;;13.02;4.97;;;;;;;;;;4956019;29;20098;-40
2022/04/20 09:17:18;;;;;;;12.90;4.95;;;;;;;;;;4956068;29;20033;-40
2022/04/20 09:19:46;;;;;;;8.85;4.38;;;;;;;;;;4955844;29;20028;-40
2022/04/20 09:22:23;;;;;;;9.88;4.35;;;;;;;;;;4955861;29;20478;-40
2022/04/20 09:25:17;;;;;;;10.98;5.03;;;;;;;;;;4955853;29;20102;-40
2022/04/20 09:27:44;;;;;;;10.38;4.18;;;;;;;;;;4954404;29;20046;-40
2022/04/20 09:30:13;;;;;;;7.32;4.43;;;;;;;;;;4955909;28;20032;-40
2022/04/20 09:32:44;;;;;;;11.45;4.07;;;;;;;;;;4956698;28;20043;-40
2022/04/20 09:35:18;;;;;;;9.85;4.70;;;;;;;;;;4955673;29;20023;-40
2022/04/20 09:37:45;;;;;;;10.23;4.32;;;;;;;;;;4955582;29;20035;-40
2022/04/20 09:40:14;;;;;;;11.77;4.28;;;;;;;;;;4960470;28;20110;-40
2022/04/20 09:43:01;;;;;;;12.52;4.25;;;;;;;;;;4960075;28;20039;-40
2022/04/20 09:45:28;;;;;;;16.63;4.47;;;;;;;;;;4962679;28;20035;-40
2022/04/20 09:50:42;;;;;;;16.13;4.53;;;;;;;;;;4969599;28;20053;-40
2022/04/20 09:53:13;;;;;;;14.82;4.53;;;;;;;;;;4974375;28;20643;-40
2022/04/20 09:55:41;;;;;;;13.57;4.03;;;;;;;;;;4974498;28;20070;-40
2022/04/20 09:58:11;;;;;;;13.77;4.50;;;;;;;;;;4974464;28;20488;-40
2022/04/20 10:00:39;;;;;;;16.83;4.60;;;;;;;;;;4974568;28;20053;-40
2022/04/20 10:03:07;;;;;;;13.38;4.35;;;;;;;;;;4974415;28;20503;-40
2022/04/20 10:05:34;;;;;;;11.93;4.60;;;;;;;;;;4974389;28;20122;-40
2022/04/20 10:08:02;;;;;;;10.52;4.40;;;;;;;;;;4974426;28;20030;-40
2022/04/20 10:10:30;;;;;;;11.65;3.95;;;;;;;;;;4974280;28;20503;-40
2022/04/20 10:12:57;;;;;;;15.60;4.32;;;;;;;;;;4974174;28;20031;-40
2022/04/20 10:18:31;;;;;;;9.35;3.90;;;;;;;;;;4974584;28;20042;-40
2022/04/20 10:21:00;;;;;;;10.23;3.85;;;;;;;;;;4973998;28;20440;-40
2022/04/20 10:23:29;;;;;;;8.95;3.67;;;;;;;;;;4973148;28;20109;-40
2022/04/20 10:25:57;;;;;;;12.43;4.30;;;;;;;;;;4974043;28;20038;-40
2022/04/20 10:28:42;;;;;;;9.65;4.28;;;;;;;;;;4974101;28;20027;-40
2022/04/20 10:31:18;;;;;;;9.77;4.72;;;;;;;;;;4973946;28;20058;-40
2022/04/20 10:33:46;;;;;;;8.50;3.95;;;;;;;;;;4973982;28;20034;-40
2022/04/20 10:36:15;;;;;;;9.07;3.42;;;;;;;;;;4973964;28;20038;-40
2022/04/20 10:38:44;;;;;;;12.85;4.13;;;;;;;;;;4973798;28;20393;-40
2022/04/20 10:41:11;;;;;;;19.52;4.72;;;;;;;;;;4973848;28;20033;-40
2022/04/20 10:43:39;;;;;;;10.32;4.07;;;;;;;;;;4973684;28;20035;-40
2022/04/20 10:46:06;;;;;;;13.73;4.05;;;;;;;;;;4973854;28;20433;-40
2022/04/20 10:48:46;;;;;;;17.27;4.47;;;;;;;;;;4973798;28;20106;-40
2022/04/20 10:51:14;;;;;;;13.25;5.45;;;;;;;;;;4973710;28;20027;-40
2022/04/20 10:53:46;;;;;;;19.30;3.90;;;;;;;;;;4965978;28;20531;-40
2022/04/20 10:56:13;;;;;;;11.18;3.53;;;;;;;;;;4973581;28;20023;-40
2022/04/20 10:59:00;;;;;;;13.25;4.07;;;;;;;;;;4973706;28;20074;-40
2022/04/20 11:01:27;;;;;;;19.05;3.83;;;;;;;;;;4957577;28;20515;-40
2022/04/20 11:04:00;;;;;;;12.98;3.85;;;;;;;;;;4973557;28;20027;-40
2022/04/20 11:06:28;;;;;;;11.40;3.80;;;;;;;;;;4973623;28;20397;-40
2022/04/20 11:09:00;;;;;;;14.93;4.35;;;;;;;;;;4973561;28;20102;-40
2022/04/20 11:20:07;;;;;;;12.65;4.20;;;;;;;;;;4973594;28;20045;-40
2022/04/20 11:22:45;;;;;;;12.82;3.72;;;;;;;;;;4973357;28;20393;-40
2022/04/20 11:25:12;;;;;;;13.00;4.38;;;;;;;;;;4973409;28;20034;-40
2022/04/20 11:27:39;;;;;;;15.95;3.70;;;;;;;;;;4973431;28;20497;-40
2022/04/20 11:30:07;;;;;;;9.50;3.60;;;;;;;;;;4973368;28;20055;-40
2022/04/20 11:32:34;;;;;;;16.42;4.65;;;;;;;;;;4972591;28;20524;-40
2022/04/20 11:35:05;;;;;;;10.45;3.67;;;;;;;;;;4974431;28;20042;-40
2022/04/20 11:37:33;;;;;;;12.73;3.17;;;;;;;;;;4977034;28;20126;-40
2022/04/20 11:40:01;;;;;;;16.90;3.65;;;;;;;;;;4976884;28;20027;-40
2022/04/20 11:42:27;;;;;;;22.88;3.47;;;;;;;;;;4976919;28;20042;-40
2022/04/20 11:44:55;;;;;;;15.82;3.28;;;;;;;;;;4956758;28;20041;-39
2022/04/20 11:47:22;;;;;;;7.90;3.42;;;;;;;;;;4955663;29;20035;-41
2022/04/20 11:49:49;;;;;;;11.48;2.90;;;;;;;;;;4956369;29;20650;-40
2022/04/20 11:52:18;;;;;;;17.40;3.45;;;;;;;;;;4956831;29;20039;-40
2022/04/20 11:54:46;;;;;;;10.27;2.92;;;;;;;;;;4956493;29;20425;-39
2022/04/20 11:57:15;;;;;;;16.25;3.08;;;;;;;;;;4956095;29;20035;-41
2022/04/20 11:59:50;;;;;;;15.18;2.92;;;;;;;;;;4949111;29;20066;-40
2022/04/20 12:02:18;;;;;;;42.13;4.63;;;;;;;;;;4957840;28;20393;-40
2022/04/20 12:04:46;;;;;;;23.75;3.03;;;;;;;;;;4964849;28;20061;-40
2022/04/20 12:07:13;;;;;;;22.35;3.00;;;;;;;;;;4963571;28;20030;-41
2022/04/20 12:09:43;;;;;;;30.70;3.95;;;;;;;;;;4961348;28;20031;-41
2022/04/20 12:12:16;;;;;;;19.65;2.90;;;;;;;;;;4964625;28;20096;-41
2022/04/20 12:14:43;;;;;;;24.08;3.40;;;;;;;;;;4962404;28;20066;-43
2022/04/20 12:17:11;;;;;;;15.35;2.90;;;;;;;;;;4946932;28;20031;-43
2022/04/20 12:19:42;;;;;;;23.10;3.05;;;;;;;;;;4965509;28;20027;-42
2022/04/20 12:22:10;;;;;;;17.45;3.05;;;;;;;;;;4964878;28;20452;-44
2022/04/20 12:24:38;;;;;;;20.15;3.00;;;;;;;;;;4963903;28;20135;-43
2022/04/20 12:27:16;;;;;;;25.20;2.85;;;;;;;;;;4964838;28;20035;-45
2022/04/20 12:29:45;;;;;;;23.40;2.70;;;;;;;;;;4960893;28;20118;-44
2022/04/20 12:32:12;;;;;;;34.63;4.22;;;;;;;;;;4972148;28;20047;-42
2022/04/20 12:34:53;;;;;;;36.20;3.10;;;;;;;;;;4975293;28;20441;-43
2022/04/20 12:37:29;;;;;;;27.53;2.93;;;;;;;;;;4975211;28;20122;-43
2022/04/20 12:39:56;;;;;;;33.17;3.25;;;;;;;;;;4965710;28;20031;-41
2022/04/20 12:42:26;;;;;;;31.67;3.28;;;;;;;;;;4936665;29;20445;-41
2022/04/20 12:45:02;;;;;;;48.40;4.40;;;;;;;;;;4936573;29;20050;-41
2022/04/20 12:47:29;;;;;;;43.10;4.63;;;;;;;;;;4935761;29;20142;-42
2022/04/20 12:49:59;;;;;;;42.35;4.03;;;;;;;;;;4936315;29;20028;-42
2022/04/20 12:52:29;;;;;;;36.88;3.83;;;;;;;;;;4936562;29;20040;-50
2022/04/20 12:54:56;;;;;;;28.40;3.33;;;;;;;;;;4936757;29;20036;-46
2022/04/20 13:09:08;;;;;;;26.70;3.15;;;;;;;;;;5068218;27;612331;-37
2022/04/20 13:11:35;;;;;;;21.13;3.08;;;;;;;;;;5101905;28;20503;-37
2022/04/20 13:14:02;;;;;;;15.30;2.63;;;;;;;;;;5102710;28;20037;-40
2022/04/20 13:16:30;;;;;;;18.00;3.03;;;;;;;;;;5096995;28;20060;-40
2022/04/20 13:18:57;;;;;;;19.52;2.95;;;;;;;;;;5096770;28;20036;-37
2022/04/20 13:21:24;;;;;;;20.15;3.58;;;;;;;;;;5097608;28;20046;-40
2022/04/20 13:23:52;;;;;;;13.27;3.05;;;;;;;;;;5098734;28;20592;-38
2022/04/20 13:29:04;;;;;;;14.70;3.03;;;;;;;;;;5082542;28;20062;-43
2022/04/20 13:31:32;;;;;;;16.63;2.88;;;;;;;;;;5087123;28;20031;-43
2022/04/20 13:33:59;;;;;;;13.13;2.58;;;;;;;;;;5087759;28;20036;-44
2022/04/20 13:36:27;;;;;;;22.83;2.70;;;;;;;;;;5087990;28;20040;-39
2022/04/20 13:38:54;;;;;;;18.83;3.42;;;;;;;;;;5087586;28;20032;-38
2022/04/20 13:41:21;;;;;;;17.58;2.53;;;;;;;;;;5087177;28;20045;-37
2022/04/20 13:43:48;;;;;;;15.77;2.47;;;;;;;;;;5088014;28;20031;-44
2022/04/20 13:46:15;;;;;;;15.35;2.55;;;;;;;;;;5088233;28;20027;-36
2022/04/20 13:48:42;;;;;;;14.55;2.78;;;;;;;;;;5087623;28;20044;-38
2022/04/20 13:51:09;;;;;;;22.95;2.83;;;;;;;;;;5086926;28;20454;-38
2022/04/20 13:53:36;;;;;;;23.40;2.40;;;;;;;;;;5088133;28;20119;-35
2022/04/20 13:56:03;;;;;;;8.70;2.13;;;;;;;;;;5088004;28;20078;-35
2022/04/20 13:58:31;;;;;;;10.70;2.00;;;;;;;;;;5087880;28;20028;-38
2022/04/20 14:00:58;;;;;;;8.25;2.05;;;;;;;;;;5087530;28;20437;-34
2022/04/20 14:03:25;;;;;;;10.57;1.90;;;;;;;;;;5087275;28;20033;-45
2022/04/20 14:05:52;;;;;;;13.88;2.28;;;;;;;;;;5087569;28;20046;-41
2022/04/20 14:08:19;;;;;;;11.40;2.00;;;;;;;;;;5087146;28;20490;-40
2022/04/20 14:10:46;;;;;;;10.30;1.63;;;;;;;;;;5086900;28;20052;-42
2022/04/20 14:13:13;;;;;;;12.50;2.08;;;;;;;;;;5086937;28;20039;-43
2022/04/20 14:15:40;;;;;;;10.65;1.60;;;;;;;;;;5087707;28;20103;-40
2022/04/20 14:18:07;;;;;;;10.60;1.88;;;;;;;;;;5086447;28;20515;-42
2022/04/20 14:20:34;;;;;;;6.82;1.48;;;;;;;;;;5073491;28;20056;-43
2022/04/20 14:23:01;;;;;;;12.05;1.45;;;;;;;;;;5073363;28;20043;-35
2022/04/20 14:33:44;;;;;;;9.30;1.38;;;;;;;;;;5073316;28;20500;-41
2022/04/20 14:36:11;;;;;;;7.05;1.70;;;;;;;;;;5073750;28;20028;-46
2022/04/20 14:38:38;;;;;;;13.25;1.63;;;;;;;;;;5073685;28;20752;-45
2022/04/20 14:41:05;;;;;;;12.85;1.70;;;;;;;;;;5073108;28;20440;-42
2022/04/20 14:43:32;;;;;;;4.78;1.33;;;;;;;;;;5073315;28;20363;-42
2022/04/20 14:46:00;;;;;;;11.75;1.40;;;;;;;;;;5078216;28;20031;-42
2022/04/20 14:48:26;;;;;;;9.63;1.40;;;;;;;;;;5086648;28;20427;-42
2022/04/20 14:50:54;;;;;;;8.10;1.55;;;;;;;;;;5093452;28;20401;-44
2022/04/20 14:53:21;;;;;;;6.82;1.88;;;;;;;;;;5090667;28;20485;-43
2022/04/20 14:55:49;;;;;;;7.35;1.95;;;;;;;;;;5082519;28;20036;-42
2022/04/20 14:58:16;;;;;;;17.52;1.90;;;;;;;;;;5093389;28;20375;-43
2022/04/20 15:00:43;;;;;;;10.98;1.63;;;;;;;;;;5087456;28;20388;-42
2022/04/20 15:03:11;;;;;;;8.20;1.63;;;;;;;;;;5077353;28;20381;-42
2022/04/20 15:05:38;;;;;;;6.22;1.58;;;;;;;;;;5075929;28;20057;-43
2022/04/20 15:08:06;;;;;;;11.43;1.90;;;;;;;;;;5087441;28;20039;-37
2022/04/20 15:10:34;;;;;;;7.80;1.67;;;;;;;;;;5091116;28;20048;-41
2022/04/20 15:13:01;;;;;;;7.25;1.70;;;;;;;;;;5086834;28;20091;-37
2022/04/20 15:15:28;;;;;;;10.68;2.00;;;;;;;;;;5092607;28;20024;-39
2022/04/20 15:17:55;;;;;;;15.40;2.90;;;;;;;;;;5092759;28;20457;-38
2022/04/20 15:20:22;;;;;;;9.70;3.05;;;;;;;;;;5092837;28;20024;-43
2022/04/20 15:22:50;;;;;;;19.00;4.63;;;;;;;;;;5092767;28;20546;-43
2022/04/20 15:25:17;;;;;;;30.38;7.25;;;;;;;;;;5092737;28;20412;-45
2022/04/20 15:27:44;;;;;;;43.22;10.32;;;;;;;;;;5092608;28;20484;-41
2022/04/20 15:30:11;;;;;;;117.82;26.98;;;;;;;;;;5091788;28;20397;-40